createdAt,value
2022-09-28T00:01:07.632Z,13.22
2022-09-28T00:03:35.747Z,13.25
2022-09-28T00:06:05.391Z,13.25
2022-09-28T00:08:33.418Z,13.22
2022-09-28T00:11:02.040Z,13.25
2022-09-28T00:13:33.281Z,13.30
2022-09-28T00:16:03.399Z,13.32
2022-09-28T00:18:32.219Z,13.31
2022-09-28T00:21:05.830Z,13.27
2022-09-28T00:23:34.462Z,13.27
2022-09-28T00:26:05.853Z,13.26
2022-09-28T00:28:35.286Z,13.25
2022-09-28T00:31:03.323Z,13.23
2022-09-28T00:33:31.453Z,13.22
2022-09-28T00:36:00.211Z,13.22
2022-09-28T00:38:29.493Z,13.20
2022-09-28T00:40:57.587Z,13.20
2022-09-28T00:43:26.458Z,13.16
2022-09-28T00:46:00.357Z,13.14
2022-09-28T00:48:32.283Z,13.14
2022-09-28T00:51:01.915Z,13.17
2022-09-28T00:53:32.823Z,13.18
2022-09-28T00:56:04.901Z,13.14
2022-09-28T00:58:36.273Z,13.09
2022-09-28T01:01:06.263Z,13.03
2022-09-28T01:03:35.296Z,12.98
2022-09-28T01:06:06.203Z,13.02
2022-09-28T01:08:35.479Z,13.09
2022-09-28T01:11:03.786Z,13.17
2022-09-28T01:13:32.985Z,13.40
2022-09-28T01:16:10.161Z,13.56
2022-09-28T01:18:47.716Z,13.67
2022-09-28T01:21:20.136Z,13.68
2022-09-28T01:24:09.754Z,13.62
2022-09-28T01:27:04.131Z,13.68
2022-09-28T01:29:48.614Z,13.86
2022-09-28T01:32:24.992Z,13.99
2022-09-28T01:34:58.796Z,14.06
2022-09-28T01:37:33.230Z,14.30
2022-09-28T01:40:04.356Z,14.56
2022-09-28T01:42:38.429Z,14.67
2022-09-28T01:45:13.258Z,14.67
2022-09-28T01:47:42.072Z,14.49
2022-09-28T01:50:14.096Z,14.43
2022-09-28T01:52:48.339Z,14.40
2022-09-28T01:55:25.137Z,14.36
2022-09-28T01:57:58.409Z,14.20
2022-09-28T02:00:27.787Z,14.18
2022-09-28T02:03:01.753Z,14.12
2022-09-28T02:05:33.537Z,14.01
2022-09-28T02:08:07.898Z,13.79
2022-09-28T02:10:42.581Z,13.64
2022-09-28T02:13:16.445Z,13.61
2022-09-28T02:15:51.857Z,13.62
2022-09-28T02:18:20.086Z,13.56
2022-09-28T02:20:53.910Z,13.51
2022-09-28T02:23:24.593Z,13.44
2022-09-28T02:25:57.126Z,13.38
2022-09-28T02:28:26.407Z,13.31
2022-09-28T02:30:54.494Z,13.27
2022-09-28T02:33:27.040Z,13.22
2022-09-28T02:35:55.409Z,13.20
2022-09-28T02:38:23.374Z,13.21
2022-09-28T02:41:02.736Z,13.21
2022-09-28T02:43:40.728Z,13.24
2022-09-28T02:46:19.055Z,13.30
2022-09-28T02:49:17.332Z,13.36
2022-09-28T02:52:01.941Z,13.38
2022-09-28T02:54:42.447Z,13.30
2022-09-28T02:57:29.514Z,13.29
2022-09-28T03:00:08.228Z,13.27
2022-09-28T03:02:43.330Z,13.30
2022-09-28T03:05:19.453Z,13.32
2022-09-28T03:07:55.683Z,13.31
2022-09-28T03:10:29.539Z,13.29
2022-09-28T03:12:59.081Z,13.33
2022-09-28T03:15:30.694Z,13.42
2022-09-28T03:17:59.373Z,13.50
2022-09-28T03:20:28.174Z,13.67
2022-09-28T03:23:20.110Z,13.70
2022-09-28T03:25:44.453Z,13.69
2022-09-28T03:28:12.463Z,13.63
2022-09-28T03:30:43.060Z,13.56
2022-09-28T03:33:11.008Z,13.52
2022-09-28T03:35:38.920Z,13.54
2022-09-28T03:38:06.874Z,13.63
2022-09-28T03:40:34.938Z,13.75
2022-09-28T03:43:02.972Z,13.83
2022-09-28T03:45:30.931Z,13.88
2022-09-28T03:48:00.430Z,13.95
2022-09-28T03:50:28.762Z,14.09
2022-09-28T03:52:56.703Z,14.26
2022-09-28T03:55:24.648Z,14.42
2022-09-28T03:57:56.135Z,14.62
2022-09-28T04:00:24.331Z,14.75
2022-09-28T04:02:52.247Z,14.78
2022-09-28T04:05:21.500Z,14.77
2022-09-28T04:07:49.557Z,14.84
2022-09-28T04:10:17.667Z,14.85
2022-09-28T04:12:45.994Z,14.91
2022-09-28T04:15:14.083Z,14.99
2022-09-28T04:17:42.033Z,15.16
2022-09-28T04:20:10.607Z,15.34
2022-09-28T04:22:39.887Z,15.38
2022-09-28T04:25:08.330Z,15.43
2022-09-28T04:27:53.597Z,15.45
2022-09-28T04:43:59.628Z,15.40
2022-09-28T04:46:27.659Z,15.74
2022-09-28T04:48:55.609Z,15.96
2022-09-28T04:51:23.687Z,16.16
2022-09-28T04:53:51.763Z,16.33
2022-09-28T04:56:20.728Z,16.45
2022-09-28T04:58:52.576Z,16.60
2022-09-28T05:01:24.340Z,16.69
2022-09-28T05:03:52.521Z,16.67
2022-09-28T05:06:21.063Z,16.62
2022-09-28T05:08:48.985Z,16.63
2022-09-28T05:11:17.508Z,16.61
2022-09-28T05:13:46.678Z,16.52
2022-09-28T05:16:16.898Z,16.43
2022-09-28T05:18:46.331Z,16.53
2022-09-28T05:21:15.730Z,16.57
2022-09-28T05:23:47.976Z,16.60
2022-09-28T05:26:16.128Z,16.45
2022-09-28T05:28:44.719Z,16.25
2022-09-28T05:31:12.699Z,16.06
2022-09-28T05:33:40.740Z,16.01
2022-09-28T05:36:11.912Z,15.84
2022-09-28T05:38:39.951Z,15.74
2022-09-28T05:41:07.982Z,15.57
2022-09-28T05:43:36.364Z,15.46
2022-09-28T05:46:04.666Z,15.37
2022-09-28T05:48:32.752Z,15.26
2022-09-28T05:51:00.702Z,15.18
2022-09-28T05:53:30.000Z,15.10
2022-09-28T05:55:59.575Z,15.07
2022-09-28T05:58:28.524Z,15.02
2022-09-28T06:00:57.118Z,15.08
2022-09-28T06:03:25.904Z,15.13
2022-09-28T06:05:53.949Z,15.17
2022-09-28T06:08:22.240Z,15.20
2022-09-28T06:10:51.572Z,15.15
2022-09-28T06:13:20.088Z,15.15
2022-09-28T06:15:48.118Z,15.21
2022-09-28T06:18:16.117Z,15.37
2022-09-28T06:20:44.468Z,15.50
2022-09-28T06:23:14.044Z,15.71
2022-09-28T06:25:42.101Z,15.97
2022-09-28T06:28:13.397Z,16.19
2022-09-28T06:30:42.530Z,16.34
2022-09-28T06:33:12.875Z,16.43
2022-09-28T06:35:40.927Z,16.48
2022-09-28T06:38:09.178Z,16.60
2022-09-28T06:40:37.593Z,16.67
2022-09-28T06:43:10.264Z,16.69
2022-09-28T06:45:40.130Z,16.61
2022-09-28T06:48:09.127Z,16.74
2022-09-28T06:50:38.813Z,16.92
2022-09-28T06:53:09.471Z,17.10
2022-09-28T06:55:40.748Z,17.24
2022-09-28T06:58:11.895Z,17.25
2022-09-28T07:00:42.515Z,17.36
2022-09-28T07:03:13.611Z,17.40
2022-09-28T07:05:45.347Z,17.53
2022-09-28T07:08:13.895Z,17.59
2022-09-28T07:10:44.025Z,17.58
2022-09-28T07:13:32.912Z,17.68
2022-09-28T07:16:03.235Z,17.86
2022-09-28T07:18:31.133Z,17.93
2022-09-28T07:20:59.712Z,17.83
2022-09-28T07:23:29.643Z,17.70
2022-09-28T07:25:58.329Z,17.69
2022-09-28T07:28:26.279Z,17.71
2022-09-28T07:30:54.214Z,17.73
2022-09-28T07:33:25.304Z,17.70
2022-09-28T07:35:53.660Z,17.67
2022-09-28T07:38:21.627Z,17.63
2022-09-28T07:41:07.252Z,17.61
2022-09-28T07:43:35.378Z,17.59
2022-09-28T07:46:03.336Z,17.56
2022-09-28T07:48:36.728Z,17.54
2022-09-28T07:51:05.438Z,17.55
2022-09-28T07:53:33.717Z,17.60
2022-09-28T07:56:08.699Z,17.57
2022-09-28T07:58:38.179Z,17.64
2022-09-28T08:01:08.002Z,17.76
2022-09-28T08:03:38.309Z,17.81
2022-09-28T08:06:09.913Z,18.02
2022-09-28T08:08:38.067Z,18.11
2022-09-28T08:11:10.270Z,18.16
2022-09-28T08:13:38.870Z,18.45
2022-09-28T08:16:08.496Z,18.72
2022-09-28T08:18:37.829Z,18.72
2022-09-28T08:21:25.416Z,18.64
2022-09-28T08:23:54.029Z,18.61
2022-09-28T08:26:21.963Z,18.73
2022-09-28T08:28:50.185Z,18.93
2022-09-28T08:31:18.323Z,19.00
2022-09-28T08:33:47.781Z,19.10
2022-09-28T08:36:15.690Z,19.09
2022-09-28T08:38:43.710Z,19.06
2022-09-28T08:41:18.697Z,19.14
2022-09-28T08:44:04.998Z,19.26
2022-09-28T08:46:37.091Z,19.43
2022-09-28T08:49:30.939Z,19.43
2022-09-28T08:52:02.372Z,19.48
2022-09-28T08:54:40.398Z,19.58
2022-09-28T08:57:13.726Z,19.41
2022-09-28T08:59:51.303Z,19.21
2022-09-28T09:02:25.560Z,19.16
2022-09-28T09:04:55.652Z,19.14
2022-09-28T09:07:48.200Z,19.19
2022-09-28T09:10:39.865Z,19.34
2022-09-28T09:13:19.979Z,19.46
2022-09-28T09:15:57.601Z,19.63
2022-09-28T09:18:38.919Z,19.72
2022-09-28T09:21:15.521Z,19.83
2022-09-28T09:23:53.075Z,19.91
2022-09-28T09:26:25.979Z,20.02
2022-09-28T09:29:23.096Z,19.99
2022-09-28T09:32:06.456Z,20.17
2022-09-28T09:34:44.444Z,20.36
2022-09-28T09:37:34.464Z,20.30
2022-09-28T09:40:24.968Z,20.20
2022-09-28T09:43:06.197Z,20.04
2022-09-28T09:45:58.676Z,19.85
2022-09-28T09:48:35.612Z,19.74
2022-09-28T09:51:11.953Z,19.71
2022-09-28T09:53:48.431Z,19.73
2022-09-28T09:56:23.069Z,19.67
2022-09-28T09:58:56.133Z,19.75
2022-09-28T10:01:36.241Z,19.99
2022-09-28T10:04:07.521Z,20.32
2022-09-28T10:06:38.825Z,20.62
2022-09-28T10:09:14.796Z,20.95
2022-09-28T10:11:47.697Z,21.20
2022-09-28T10:14:19.353Z,21.37
2022-09-28T10:16:48.720Z,21.29
2022-09-28T10:19:19.441Z,21.27
2022-09-28T10:21:50.298Z,21.21
2022-09-28T10:24:28.721Z,21.13
2022-09-28T10:27:00.290Z,21.18
2022-09-28T10:29:40.085Z,21.21
2022-09-28T10:32:19.783Z,21.25
2022-09-28T10:34:50.834Z,21.25
2022-09-28T10:37:19.709Z,21.15
2022-09-28T10:39:53.299Z,20.96
2022-09-28T10:42:24.807Z,20.78
2022-09-28T10:44:56.646Z,20.74
2022-09-28T10:47:26.870Z,20.87
2022-09-28T10:49:56.997Z,21.07
2022-09-28T10:52:33.933Z,21.28
2022-09-28T10:55:04.556Z,21.36
2022-09-28T10:57:36.720Z,21.45
2022-09-28T11:00:07.016Z,21.58
2022-09-28T11:02:37.584Z,21.73
2022-09-28T11:05:08.168Z,21.71
2022-09-28T11:07:47.479Z,21.49
2022-09-28T11:10:24.501Z,21.47
2022-09-28T11:12:54.075Z,21.63
2022-09-28T11:15:25.810Z,21.78
2022-09-28T11:17:54.069Z,21.80
2022-09-28T11:20:33.028Z,21.72
2022-09-28T11:23:14.856Z,21.72
2022-09-28T11:25:45.251Z,21.61
2022-09-28T11:28:23.911Z,21.68
2022-09-28T11:30:54.177Z,21.67
2022-09-28T11:33:29.368Z,21.65
2022-09-28T11:36:10.412Z,21.62
2022-09-28T11:38:42.066Z,21.67
2022-09-28T11:41:34.289Z,21.80
2022-09-28T11:44:18.664Z,21.94
2022-09-28T11:46:58.315Z,22.07
2022-09-28T11:49:33.694Z,22.17
2022-09-28T11:52:11.892Z,22.30
2022-09-28T11:54:46.045Z,22.51
2022-09-28T11:57:19.595Z,22.75
2022-09-28T11:59:57.588Z,22.92
2022-09-28T12:02:30.998Z,23.03
2022-09-28T12:05:15.951Z,22.96
2022-09-28T12:07:52.238Z,22.76
2022-09-28T12:10:28.096Z,22.58
2022-09-28T12:13:03.395Z,22.41
2022-09-28T12:16:07.425Z,22.36
2022-09-28T12:18:34.246Z,22.25
2022-09-28T12:21:19.509Z,22.09
2022-09-28T12:23:49.900Z,22.09
2022-09-28T12:26:29.587Z,22.06
2022-09-28T12:29:03.021Z,22.16
2022-09-28T12:31:36.148Z,22.32
2022-09-28T12:34:04.199Z,22.66
2022-09-28T12:36:47.546Z,23.17
2022-09-28T12:39:53.484Z,23.80
2022-09-28T12:42:35.130Z,24.58
2022-09-28T12:45:19.978Z,25.63
2022-09-28T12:48:07.825Z,27.78
2022-09-28T12:50:49.944Z,29.84
2022-09-28T12:53:53.048Z,31.54
2022-09-28T12:56:29.677Z,32.81
2022-09-28T12:59:12.709Z,33.88
2022-09-28T13:02:15.553Z,34.59
2022-09-28T13:04:58.936Z,34.77
2022-09-28T13:07:35.382Z,35.21
2022-09-28T13:10:16.780Z,35.37
2022-09-28T13:12:57.518Z,33.25
2022-09-28T13:15:39.320Z,30.89
2022-09-28T13:18:20.399Z,29.64
2022-09-28T13:21:08.261Z,28.77
2022-09-28T13:23:40.526Z,27.61
2022-09-28T13:26:25.425Z,26.56
2022-09-28T13:28:55.759Z,25.94
2022-09-28T13:31:33.187Z,26.06
2022-09-28T13:34:07.324Z,25.98
2022-09-28T13:36:40.482Z,25.56
2022-09-28T13:39:48.799Z,24.75
2022-09-28T13:42:42.855Z,24.08
2022-09-28T13:45:46.790Z,23.54
2022-09-28T13:48:17.478Z,23.21
2022-09-28T13:51:31.957Z,22.81
2022-09-28T13:54:13.331Z,22.71
2022-09-28T13:56:50.972Z,22.61
2022-09-28T13:59:24.352Z,22.45
2022-09-28T14:01:57.518Z,22.30
2022-09-28T14:04:47.122Z,22.12
2022-09-28T14:07:22.997Z,22.22
2022-09-28T14:10:17.600Z,22.40
2022-09-28T14:12:47.975Z,22.88
2022-09-28T14:15:45.137Z,23.71
2022-09-28T14:18:23.480Z,26.04
2022-09-28T14:21:21.772Z,29.29
2022-09-28T14:24:27.986Z,30.76
2022-09-28T14:27:14.635Z,31.50
2022-09-28T14:29:42.758Z,32.43
2022-09-28T14:32:26.664Z,32.26
2022-09-28T14:34:59.485Z,31.18
2022-09-28T14:37:49.053Z,30.77
2022-09-28T14:40:45.859Z,31.83
2022-09-28T14:43:27.856Z,32.16
2022-09-28T14:46:31.610Z,32.60
2022-09-28T14:49:01.738Z,32.78
2022-09-28T14:52:02.652Z,32.98
2022-09-28T14:54:40.288Z,31.90
2022-09-28T14:57:18.590Z,30.43
2022-09-28T14:59:47.929Z,29.18
2022-09-28T15:02:26.298Z,27.65
2022-09-28T15:05:00.055Z,26.40
2022-09-28T15:07:32.915Z,25.37
2022-09-28T15:10:02.150Z,24.68
2022-09-28T15:12:32.622Z,24.29
2022-09-28T15:15:02.819Z,23.92
2022-09-28T15:17:39.195Z,23.74
2022-09-28T15:20:22.685Z,23.77
2022-09-28T15:22:52.706Z,24.32
2022-09-28T15:25:24.543Z,24.80
2022-09-28T15:27:56.963Z,25.08
2022-09-28T15:30:28.488Z,25.80
2022-09-28T15:33:18.081Z,25.84
2022-09-28T15:35:49.972Z,25.70
2022-09-28T15:38:18.499Z,25.54
2022-09-28T15:40:47.794Z,25.02
2022-09-28T15:43:27.073Z,24.34
2022-09-28T15:46:02.716Z,23.68
2022-09-28T15:48:34.153Z,23.07
2022-09-28T15:51:11.145Z,22.57
2022-09-28T15:53:46.820Z,22.04
2022-09-28T15:56:19.037Z,21.61
2022-09-28T15:59:12.051Z,21.14
2022-09-28T16:01:41.151Z,20.79
2022-09-28T16:04:40.542Z,20.44
2022-09-28T16:07:25.480Z,20.11
2022-09-28T16:10:30.897Z,19.78
2022-09-28T16:13:09.720Z,19.51
2022-09-28T16:15:40.450Z,19.21
2022-09-28T16:18:20.090Z,18.91
2022-09-28T16:20:50.980Z,18.67
2022-09-28T16:23:26.045Z,18.44
2022-09-28T16:25:58.737Z,18.20
2022-09-28T16:28:51.755Z,17.94
2022-09-28T16:31:28.532Z,17.73
2022-09-28T16:33:59.032Z,17.55
2022-09-28T16:36:29.856Z,17.41
2022-09-28T16:38:57.747Z,17.27
2022-09-28T16:41:28.997Z,17.15
2022-09-28T16:44:01.038Z,17.00
2022-09-28T16:46:34.269Z,16.86
2022-09-28T16:49:03.175Z,16.73
2022-09-28T16:51:31.109Z,16.61
2022-09-28T16:54:19.485Z,16.51
2022-09-28T16:56:47.537Z,16.42
2022-09-28T16:59:15.518Z,16.33
2022-09-28T17:01:45.039Z,16.23
2022-09-28T17:04:13.111Z,16.13
2022-09-28T17:06:41.159Z,16.05
2022-09-28T17:09:13.140Z,15.97
2022-09-28T17:11:41.060Z,15.90
2022-09-28T17:14:09.468Z,15.83
2022-09-28T17:19:32.082Z,15.70
2022-09-28T17:22:00.024Z,15.65
2022-09-28T17:24:28.130Z,15.61
2022-09-28T17:26:56.944Z,15.56
2022-09-28T17:29:24.930Z,15.57
2022-09-28T17:31:53.032Z,15.60
2022-09-28T17:34:21.277Z,15.66
2022-09-28T17:36:50.825Z,15.67
2022-09-28T17:39:20.030Z,15.68
2022-09-28T17:41:48.068Z,15.68
2022-09-28T17:44:16.368Z,15.68
2022-09-28T17:46:49.173Z,15.68
2022-09-28T17:49:17.705Z,15.69
2022-09-28T17:51:45.764Z,15.66
2022-09-28T17:54:16.946Z,15.60
2022-09-28T17:56:45.507Z,15.59
2022-09-28T17:59:15.508Z,15.56
2022-09-28T18:01:43.653Z,15.53
2022-09-28T18:04:27.905Z,15.52
2022-09-28T18:07:01.571Z,15.51
2022-09-28T18:09:31.155Z,15.47
2022-09-28T18:12:01.764Z,15.41
2022-09-28T18:14:30.146Z,15.34
2022-09-28T18:16:58.064Z,15.26
2022-09-28T18:19:31.181Z,15.20
2022-09-28T18:22:01.511Z,15.15
2022-09-28T18:24:32.562Z,15.08
2022-09-28T18:27:00.593Z,14.97
2022-09-28T18:29:32.920Z,14.85
2022-09-28T18:32:01.577Z,14.77
2022-09-28T18:34:29.561Z,14.70
2022-09-28T18:36:59.562Z,14.64
2022-09-28T18:39:27.730Z,14.57
2022-09-28T18:41:57.292Z,14.52
2022-09-28T18:44:25.250Z,14.51
2022-09-28T18:46:53.171Z,14.50
2022-09-28T18:49:21.421Z,14.47
2022-09-28T18:51:49.345Z,14.45
2022-09-28T18:54:17.537Z,14.44
2022-09-28T18:56:47.222Z,14.39
2022-09-28T18:59:16.756Z,14.35
2022-09-28T19:01:44.718Z,14.31
2022-09-28T19:04:13.571Z,14.29
2022-09-28T19:06:44.589Z,14.26
2022-09-28T19:09:13.191Z,14.25
2022-09-28T19:11:41.312Z,14.25
2022-09-28T19:14:11.127Z,14.24
2022-09-28T19:16:40.444Z,14.23
2022-09-28T19:19:09.737Z,14.21
2022-09-28T19:21:37.710Z,14.19
2022-09-28T19:24:06.041Z,14.15
2022-09-28T19:26:34.730Z,14.12
2022-09-28T19:29:03.065Z,14.10
2022-09-28T19:31:32.707Z,14.08
2022-09-28T19:34:02.241Z,14.02
2022-09-28T19:36:30.801Z,13.99
2022-09-28T19:39:02.207Z,13.96
2022-09-28T19:41:51.328Z,13.95
2022-09-28T19:44:24.953Z,13.94
2022-09-28T19:46:54.607Z,13.91
2022-09-28T19:49:25.457Z,13.87
2022-09-28T19:52:13.908Z,13.84
2022-09-28T19:54:44.615Z,13.83
2022-09-28T19:57:14.564Z,13.79
2022-09-28T19:59:42.786Z,13.75
2022-09-28T20:02:13.436Z,13.72
2022-09-28T20:04:42.856Z,13.68
2022-09-28T20:07:12.096Z,13.66
2022-09-28T20:09:40.004Z,13.63
2022-09-28T20:12:07.908Z,13.59
2022-09-28T20:14:39.508Z,13.57
2022-09-28T20:17:08.763Z,13.55
2022-09-28T20:19:36.751Z,13.54
2022-09-28T20:22:06.343Z,13.52
2022-09-28T20:24:34.364Z,13.50
2022-09-28T20:27:02.909Z,13.46
2022-09-28T20:29:33.451Z,13.46
2022-09-28T20:32:02.114Z,13.46
2022-09-28T20:34:30.042Z,13.44
2022-09-28T20:36:57.951Z,13.45
2022-09-28T20:39:27.443Z,13.40
2022-09-28T20:41:55.612Z,13.38
2022-09-28T20:44:23.657Z,13.33
2022-09-28T20:46:52.121Z,13.28
2022-09-28T20:49:20.185Z,13.22
2022-09-28T20:51:48.123Z,13.16
2022-09-28T20:54:16.125Z,13.15
2022-09-28T20:56:48.098Z,13.11
2022-09-28T20:59:16.446Z,13.08
2022-09-28T21:01:44.679Z,13.05
2022-09-28T21:04:13.055Z,13.01
2022-09-28T21:06:42.815Z,12.97
2022-09-28T21:09:12.228Z,12.94
2022-09-28T21:11:40.369Z,12.92
2022-09-28T21:14:10.822Z,12.88
2022-09-28T21:16:39.135Z,12.85
2022-09-28T21:19:07.138Z,12.81
2022-09-28T21:21:37.634Z,12.78
2022-09-28T21:24:05.852Z,12.77
2022-09-28T21:26:35.074Z,12.73
2022-09-28T21:29:04.651Z,12.70
2022-09-28T21:31:39.392Z,12.65
2022-09-28T21:34:08.216Z,12.66
2022-09-28T21:36:36.319Z,12.64
2022-09-28T21:39:09.560Z,12.62
2022-09-28T21:41:38.414Z,12.63
2022-09-28T21:44:06.795Z,12.61
2022-09-28T21:46:36.504Z,12.60
2022-09-28T21:49:07.502Z,12.60
2022-09-28T21:51:36.374Z,12.56
2022-09-28T21:54:04.468Z,12.51
2022-09-28T21:56:32.415Z,12.47
2022-09-28T21:59:01.316Z,12.40
2022-09-28T22:01:29.482Z,12.41
2022-09-28T22:03:59.248Z,12.41
2022-09-28T22:06:29.068Z,12.41
2022-09-28T22:08:57.794Z,12.41
2022-09-28T22:11:27.643Z,12.40
2022-09-28T22:13:57.284Z,12.44
2022-09-28T22:16:27.382Z,12.45
2022-09-28T22:18:55.844Z,12.46
2022-09-28T22:21:26.614Z,12.47
2022-09-28T22:23:55.090Z,12.48
2022-09-28T22:26:24.796Z,12.46
2022-09-28T22:28:54.666Z,12.45
2022-09-28T22:31:25.408Z,12.39
2022-09-28T22:33:53.357Z,12.33
2022-09-28T22:36:21.602Z,12.30
2022-09-28T22:38:51.016Z,12.29
2022-09-28T22:41:21.215Z,12.29
2022-09-28T22:43:49.902Z,12.29
2022-09-28T22:46:19.365Z,12.32
2022-09-28T22:48:48.317Z,12.33
2022-09-28T22:51:16.897Z,12.32
2022-09-28T22:53:45.361Z,12.31
2022-09-28T22:56:18.825Z,12.28
2022-09-28T22:58:47.695Z,12.24
2022-09-28T23:01:17.367Z,12.22
2022-09-28T23:03:45.850Z,12.22
2022-09-28T23:06:16.662Z,12.23
2022-09-28T23:08:45.632Z,12.24
2022-09-28T23:11:15.517Z,12.25
2022-09-28T23:13:43.438Z,12.27
2022-09-28T23:16:14.824Z,12.25
2022-09-28T23:18:43.802Z,12.24
2022-09-28T23:21:13.137Z,12.19
2022-09-28T23:23:41.040Z,12.14
2022-09-28T23:26:15.469Z,12.13
2022-09-28T23:28:43.560Z,12.09
2022-09-28T23:31:13.721Z,12.06
2022-09-28T23:33:41.811Z,12.07
2022-09-28T23:36:10.330Z,12.08
2022-09-28T23:38:38.992Z,12.05
2022-09-28T23:41:06.916Z,12.08
2022-09-28T23:43:36.280Z,12.07
2022-09-28T23:46:05.253Z,12.09
2022-09-28T23:48:33.272Z,12.10
2022-09-28T23:51:01.371Z,12.08
2022-09-28T23:53:29.331Z,12.09
2022-09-28T23:55:57.256Z,12.10
2022-09-28T23:58:25.867Z,12.10
